sensor_id;sensor_type;location;lat;lon;timestamp;P1;durP1;ratioP1;P2;durP2;ratioP2
67528;SDS011;54366;51.980;5.856;2023-11-21T00:01:40;10.95;;;9.70;;
67528;SDS011;54366;51.980;5.856;2023-11-21T00:04:06;11.57;;;9.68;;
67528;SDS011;54366;51.980;5.856;2023-11-21T00:06:33;12.35;;;10.60;;
67528;SDS011;54366;51.980;5.856;2023-11-21T00:08:59;10.93;;;9.80;;
67528;SDS011;54366;51.980;5.856;2023-11-21T00:11:26;11.63;;;9.50;;
67528;SDS011;54366;51.980;5.856;2023-11-21T00:13:52;10.57;;;9.23;;
67528;SDS011;54366;51.980;5.856;2023-11-21T00:16:19;10.05;;;9.05;;
67528;SDS011;54366;51.980;5.856;2023-11-21T00:18:45;9.95;;;8.95;;
67528;SDS011;54366;51.980;5.856;2023-11-21T00:21:12;11.93;;;9.50;;
67528;SDS011;54366;51.980;5.856;2023-11-21T00:23:38;12.45;;;10.07;;
67528;SDS011;54366;51.980;5.856;2023-11-21T00:26:05;13.50;;;10.57;;
67528;SDS011;54366;51.980;5.856;2023-11-21T00:28:31;12.77;;;10.25;;
67528;SDS011;54366;51.980;5.856;2023-11-21T00:30:58;11.60;;;9.93;;
67528;SDS011;54366;51.980;5.856;2023-11-21T00:33:24;12.10;;;10.52;;
67528;SDS011;54366;51.980;5.856;2023-11-21T00:35:51;11.85;;;10.07;;
67528;SDS011;54366;51.980;5.856;2023-11-21T00:38:17;13.52;;;10.82;;
67528;SDS011;54366;51.980;5.856;2023-11-21T00:40:45;12.80;;;10.93;;
67528;SDS011;54366;51.980;5.856;2023-11-21T00:43:12;12.88;;;11.50;;
67528;SDS011;54366;51.980;5.856;2023-11-21T00:45:39;14.23;;;11.30;;
67528;SDS011;54366;51.980;5.856;2023-11-21T00:48:05;13.27;;;10.55;;
67528;SDS011;54366;51.980;5.856;2023-11-21T00:50:34;12.98;;;10.82;;
67528;SDS011;54366;51.980;5.856;2023-11-21T00:53:00;12.90;;;10.73;;
67528;SDS011;54366;51.980;5.856;2023-11-21T00:55:27;14.20;;;11.68;;
67528;SDS011;54366;51.980;5.856;2023-11-21T00:57:55;14.52;;;10.90;;
67528;SDS011;54366;51.980;5.856;2023-11-21T01:00:21;14.57;;;11.63;;
67528;SDS011;54366;51.980;5.856;2023-11-21T01:02:49;13.10;;;10.90;;
67528;SDS011;54366;51.980;5.856;2023-11-21T01:05:15;12.93;;;11.50;;
67528;SDS011;54366;51.980;5.856;2023-11-21T01:07:41;13.88;;;11.60;;
67528;SDS011;54366;51.980;5.856;2023-11-21T01:10:08;13.35;;;10.88;;
67528;SDS011;54366;51.980;5.856;2023-11-21T01:12:36;12.65;;;11.20;;
67528;SDS011;54366;51.980;5.856;2023-11-21T01:15:03;14.38;;;11.25;;
67528;SDS011;54366;51.980;5.856;2023-11-21T01:17:33;14.20;;;11.40;;
67528;SDS011;54366;51.980;5.856;2023-11-21T01:20:02;15.25;;;12.13;;
67528;SDS011;54366;51.980;5.856;2023-11-21T01:22:32;15.88;;;11.85;;
67528;SDS011;54366;51.980;5.856;2023-11-21T01:24:58;14.07;;;10.60;;
67528;SDS011;54366;51.980;5.856;2023-11-21T01:27:25;16.40;;;12.15;;
67528;SDS011;54366;51.980;5.856;2023-11-21T01:29:52;17.85;;;11.82;;
67528;SDS011;54366;51.980;5.856;2023-11-21T01:32:19;15.00;;;11.48;;
67528;SDS011;54366;51.980;5.856;2023-11-21T01:34:45;16.08;;;11.88;;
67528;SDS011;54366;51.980;5.856;2023-11-21T01:37:11;17.40;;;12.15;;
67528;SDS011;54366;51.980;5.856;2023-11-21T01:39:38;16.92;;;13.18;;
67528;SDS011;54366;51.980;5.856;2023-11-21T01:42:05;17.38;;;13.05;;
67528;SDS011;54366;51.980;5.856;2023-11-21T01:44:31;19.08;;;13.70;;
67528;SDS011;54366;51.980;5.856;2023-11-21T01:46:58;16.45;;;12.43;;
67528;SDS011;54366;51.980;5.856;2023-11-21T01:49:24;17.95;;;13.00;;
67528;SDS011;54366;51.980;5.856;2023-11-21T01:51:50;17.75;;;13.30;;
67528;SDS011;54366;51.980;5.856;2023-11-21T01:54:17;16.90;;;12.93;;
67528;SDS011;54366;51.980;5.856;2023-11-21T01:56:45;15.98;;;11.70;;
67528;SDS011;54366;51.980;5.856;2023-11-21T01:59:17;17.55;;;12.77;;
67528;SDS011;54366;51.980;5.856;2023-11-21T02:01:47;17.33;;;13.50;;
67528;SDS011;54366;51.980;5.856;2023-11-21T02:04:16;15.98;;;12.88;;
67528;SDS011;54366;51.980;5.856;2023-11-21T02:06:42;17.20;;;13.43;;
67528;SDS011;54366;51.980;5.856;2023-11-21T02:09:09;18.25;;;13.25;;
67528;SDS011;54366;51.980;5.856;2023-11-21T02:11:35;16.20;;;12.57;;
67528;SDS011;54366;51.980;5.856;2023-11-21T02:14:01;15.73;;;12.38;;
67528;SDS011;54366;51.980;5.856;2023-11-21T02:16:27;15.20;;;12.10;;
67528;SDS011;54366;51.980;5.856;2023-11-21T02:18:57;15.35;;;12.02;;
67528;SDS011;54366;51.980;5.856;2023-11-21T02:21:24;15.40;;;12.48;;
67528;SDS011;54366;51.980;5.856;2023-11-21T02:23:51;16.58;;;12.93;;
67528;SDS011;54366;51.980;5.856;2023-11-21T02:26:18;16.70;;;13.32;;
67528;SDS011;54366;51.980;5.856;2023-11-21T02:28:45;16.05;;;13.00;;
67528;SDS011;54366;51.980;5.856;2023-11-21T02:31:13;16.65;;;13.32;;
67528;SDS011;54366;51.980;5.856;2023-11-21T02:33:39;14.90;;;12.38;;
67528;SDS011;54366;51.980;5.856;2023-11-21T02:36:06;16.42;;;13.25;;
67528;SDS011;54366;51.980;5.856;2023-11-21T02:38:32;17.83;;;13.65;;
67528;SDS011;54366;51.980;5.856;2023-11-21T02:40:59;16.67;;;13.68;;
67528;SDS011;54366;51.980;5.856;2023-11-21T02:43:25;19.92;;;13.82;;
67528;SDS011;54366;51.980;5.856;2023-11-21T02:45:51;17.40;;;12.77;;
67528;SDS011;54366;51.980;5.856;2023-11-21T02:48:18;16.33;;;13.07;;
67528;SDS011;54366;51.980;5.856;2023-11-21T02:50:44;18.27;;;13.43;;
67528;SDS011;54366;51.980;5.856;2023-11-21T02:53:10;18.45;;;12.60;;
67528;SDS011;54366;51.980;5.856;2023-11-21T02:55:36;17.65;;;12.70;;
67528;SDS011;54366;51.980;5.856;2023-11-21T02:58:03;16.58;;;12.95;;
67528;SDS011;54366;51.980;5.856;2023-11-21T03:00:29;18.65;;;12.90;;
67528;SDS011;54366;51.980;5.856;2023-11-21T03:02:56;15.02;;;12.00;;
67528;SDS011;54366;51.980;5.856;2023-11-21T03:05:22;17.50;;;11.93;;
67528;SDS011;54366;51.980;5.856;2023-11-21T03:07:48;14.88;;;12.10;;
67528;SDS011;54366;51.980;5.856;2023-11-21T03:10:15;14.35;;;11.80;;
67528;SDS011;54366;51.980;5.856;2023-11-21T03:12:41;14.85;;;11.80;;
67528;SDS011;54366;51.980;5.856;2023-11-21T03:15:07;11.80;;;9.60;;
67528;SDS011;54366;51.980;5.856;2023-11-21T03:17:34;11.40;;;10.07;;
67528;SDS011;54366;51.980;5.856;2023-11-21T03:20:00;11.27;;;10.07;;
67528;SDS011;54366;51.980;5.856;2023-11-21T03:22:27;12.50;;;10.77;;
67528;SDS011;54366;51.980;5.856;2023-11-21T03:24:53;10.07;;;8.50;;
67528;SDS011;54366;51.980;5.856;2023-11-21T03:27:21;10.18;;;8.98;;
67528;SDS011;54366;51.980;5.856;2023-11-21T03:29:48;10.05;;;9.05;;
67528;SDS011;54366;51.980;5.856;2023-11-21T03:32:16;10.52;;;9.23;;
67528;SDS011;54366;51.980;5.856;2023-11-21T03:34:55;10.13;;;8.82;;
67528;SDS011;54366;51.980;5.856;2023-11-21T03:37:23;11.18;;;9.75;;
67528;SDS011;54366;51.980;5.856;2023-11-21T03:39:50;11.68;;;9.85;;
67528;SDS011;54366;51.980;5.856;2023-11-21T03:42:16;12.45;;;10.48;;
67528;SDS011;54366;51.980;5.856;2023-11-21T03:44:43;11.32;;;10.13;;
67528;SDS011;54366;51.980;5.856;2023-11-21T03:47:09;11.30;;;9.50;;
67528;SDS011;54366;51.980;5.856;2023-11-21T03:49:36;11.05;;;9.40;;
67528;SDS011;54366;51.980;5.856;2023-11-21T03:52:03;11.77;;;9.88;;
67528;SDS011;54366;51.980;5.856;2023-11-21T03:54:31;11.10;;;9.48;;
67528;SDS011;54366;51.980;5.856;2023-11-21T03:56:58;11.40;;;10.20;;
67528;SDS011;54366;51.980;5.856;2023-11-21T03:59:24;10.88;;;9.32;;
67528;SDS011;54366;51.980;5.856;2023-11-21T04:01:50;11.00;;;9.68;;
67528;SDS011;54366;51.980;5.856;2023-11-21T04:04:16;11.82;;;9.65;;
67528;SDS011;54366;51.980;5.856;2023-11-21T04:06:43;11.27;;;9.65;;
67528;SDS011;54366;51.980;5.856;2023-11-21T04:09:09;10.52;;;9.15;;
67528;SDS011;54366;51.980;5.856;2023-11-21T04:11:35;11.68;;;9.75;;
67528;SDS011;54366;51.980;5.856;2023-11-21T04:14:02;12.18;;;10.40;;
67528;SDS011;54366;51.980;5.856;2023-11-21T04:16:28;11.95;;;10.65;;
67528;SDS011;54366;51.980;5.856;2023-11-21T04:18:54;12.82;;;10.93;;
67528;SDS011;54366;51.980;5.856;2023-11-21T04:21:20;12.23;;;10.93;;
67528;SDS011;54366;51.980;5.856;2023-11-21T04:23:47;12.65;;;11.07;;
67528;SDS011;54366;51.980;5.856;2023-11-21T04:26:14;14.15;;;11.85;;
67528;SDS011;54366;51.980;5.856;2023-11-21T04:28:40;12.00;;;10.65;;
67528;SDS011;54366;51.980;5.856;2023-11-21T04:31:06;11.68;;;10.38;;
67528;SDS011;54366;51.980;5.856;2023-11-21T04:33:33;12.70;;;10.73;;
67528;SDS011;54366;51.980;5.856;2023-11-21T04:35:59;12.10;;;10.52;;
67528;SDS011;54366;51.980;5.856;2023-11-21T04:38:25;11.27;;;9.82;;
67528;SDS011;54366;51.980;5.856;2023-11-21T04:40:51;11.45;;;10.15;;
67528;SDS011;54366;51.980;5.856;2023-11-21T04:43:18;11.05;;;9.50;;
67528;SDS011;54366;51.980;5.856;2023-11-21T04:45:44;10.45;;;9.27;;
67528;SDS011;54366;51.980;5.856;2023-11-21T04:48:10;11.23;;;10.02;;
67528;SDS011;54366;51.980;5.856;2023-11-21T04:50:37;10.27;;;9.20;;
67528;SDS011;54366;51.980;5.856;2023-11-21T04:53:04;10.88;;;9.15;;
67528;SDS011;54366;51.980;5.856;2023-11-21T04:55:31;11.32;;;10.10;;
67528;SDS011;54366;51.980;5.856;2023-11-21T04:57:57;10.68;;;9.57;;
67528;SDS011;54366;51.980;5.856;2023-11-21T05:00:23;11.00;;;9.50;;
67528;SDS011;54366;51.980;5.856;2023-11-21T05:02:49;10.77;;;8.95;;
67528;SDS011;54366;51.980;5.856;2023-11-21T05:05:16;9.80;;;8.27;;
67528;SDS011;54366;51.980;5.856;2023-11-21T05:07:42;9.93;;;8.02;;
67528;SDS011;54366;51.980;5.856;2023-11-21T05:10:09;9.70;;;8.70;;
67528;SDS011;54366;51.980;5.856;2023-11-21T05:12:37;9.68;;;8.02;;
67528;SDS011;54366;51.980;5.856;2023-11-21T05:15:04;8.55;;;7.50;;
67528;SDS011;54366;51.980;5.856;2023-11-21T05:17:40;9.75;;;8.45;;
67528;SDS011;54366;51.980;5.856;2023-11-21T05:20:15;11.05;;;9.23;;
67528;SDS011;54366;51.980;5.856;2023-11-21T05:22:49;9.30;;;8.30;;
67528;SDS011;54366;51.980;5.856;2023-11-21T05:25:15;10.00;;;8.82;;
67528;SDS011;54366;51.980;5.856;2023-11-21T05:27:45;9.00;;;8.10;;
67528;SDS011;54366;51.980;5.856;2023-11-21T05:30:13;8.88;;;7.97;;
67528;SDS011;54366;51.980;5.856;2023-11-21T05:32:40;9.85;;;8.85;;
67528;SDS011;54366;51.980;5.856;2023-11-21T05:35:08;9.45;;;8.48;;
67528;SDS011;54366;51.980;5.856;2023-11-21T05:37:37;9.95;;;8.93;;
67528;SDS011;54366;51.980;5.856;2023-11-21T05:40:07;9.60;;;8.60;;
67528;SDS011;54366;51.980;5.856;2023-11-21T05:42:34;11.02;;;8.75;;
67528;SDS011;54366;51.980;5.856;2023-11-21T05:45:01;9.57;;;8.23;;
67528;SDS011;54366;51.980;5.856;2023-11-21T05:47:43;10.40;;;8.60;;
67528;SDS011;54366;51.980;5.856;2023-11-21T05:50:12;11.32;;;9.32;;
67528;SDS011;54366;51.980;5.856;2023-11-21T05:52:46;11.10;;;9.90;;
67528;SDS011;54366;51.980;5.856;2023-11-21T05:55:13;10.40;;;8.95;;
67528;SDS011;54366;51.980;5.856;2023-11-21T05:57:40;11.48;;;9.07;;
67528;SDS011;54366;51.980;5.856;2023-11-21T06:00:07;11.57;;;10.15;;
67528;SDS011;54366;51.980;5.856;2023-11-21T06:02:46;10.02;;;8.98;;
67528;SDS011;54366;51.980;5.856;2023-11-21T06:05:17;12.60;;;9.93;;
67528;SDS011;54366;51.980;5.856;2023-11-21T06:07:44;14.07;;;10.10;;
67528;SDS011;54366;51.980;5.856;2023-11-21T06:10:10;11.65;;;9.70;;
67528;SDS011;54366;51.980;5.856;2023-11-21T06:12:40;11.98;;;9.68;;
67528;SDS011;54366;51.980;5.856;2023-11-21T06:15:08;10.85;;;9.27;;
67528;SDS011;54366;51.980;5.856;2023-11-21T06:17:39;11.15;;;9.18;;
67528;SDS011;54366;51.980;5.856;2023-11-21T06:20:07;10.25;;;8.88;;
67528;SDS011;54366;51.980;5.856;2023-11-21T06:22:41;10.70;;;8.57;;
67528;SDS011;54366;51.980;5.856;2023-11-21T06:25:08;10.25;;;8.95;;
67528;SDS011;54366;51.980;5.856;2023-11-21T06:27:39;10.75;;;9.07;;
67528;SDS011;54366;51.980;5.856;2023-11-21T06:30:07;9.82;;;8.82;;
67528;SDS011;54366;51.980;5.856;2023-11-21T06:32:35;9.55;;;8.52;;
67528;SDS011;54366;51.980;5.856;2023-11-21T06:35:02;9.88;;;8.88;;
67528;SDS011;54366;51.980;5.856;2023-11-21T06:37:30;9.82;;;8.27;;
67528;SDS011;54366;51.980;5.856;2023-11-21T06:39:57;10.68;;;9.05;;
67528;SDS011;54366;51.980;5.856;2023-11-21T06:42:24;9.35;;;8.20;;
67528;SDS011;54366;51.980;5.856;2023-11-21T06:44:51;10.38;;;8.80;;
67528;SDS011;54366;51.980;5.856;2023-11-21T06:47:19;10.27;;;8.35;;
67528;SDS011;54366;51.980;5.856;2023-11-21T06:49:46;10.48;;;8.48;;
67528;SDS011;54366;51.980;5.856;2023-11-21T06:52:15;9.57;;;8.45;;
67528;SDS011;54366;51.980;5.856;2023-11-21T06:54:41;9.63;;;8.63;;
67528;SDS011;54366;51.980;5.856;2023-11-21T06:57:08;11.02;;;9.05;;
67528;SDS011;54366;51.980;5.856;2023-11-21T06:59:34;11.90;;;10.35;;
67528;SDS011;54366;51.980;5.856;2023-11-21T07:02:01;12.27;;;10.38;;
67528;SDS011;54366;51.980;5.856;2023-11-21T07:04:27;10.30;;;9.20;;
67528;SDS011;54366;51.980;5.856;2023-11-21T07:06:53;10.32;;;9.00;;
67528;SDS011;54366;51.980;5.856;2023-11-21T07:09:20;12.23;;;10.02;;
67528;SDS011;54366;51.980;5.856;2023-11-21T07:11:51;11.32;;;9.30;;
67528;SDS011;54366;51.980;5.856;2023-11-21T07:14:18;12.40;;;10.45;;
67528;SDS011;54366;51.980;5.856;2023-11-21T07:16:45;11.25;;;9.88;;
67528;SDS011;54366;51.980;5.856;2023-11-21T07:19:12;12.30;;;10.25;;
67528;SDS011;54366;51.980;5.856;2023-11-21T07:21:39;12.13;;;10.10;;
67528;SDS011;54366;51.980;5.856;2023-11-21T07:24:06;11.35;;;9.63;;
67528;SDS011;54366;51.980;5.856;2023-11-21T07:26:33;12.75;;;10.23;;
67528;SDS011;54366;51.980;5.856;2023-11-21T07:29:00;12.30;;;10.50;;
67528;SDS011;54366;51.980;5.856;2023-11-21T07:31:28;12.32;;;9.55;;
67528;SDS011;54366;51.980;5.856;2023-11-21T07:33:55;11.63;;;9.60;;
67528;SDS011;54366;51.980;5.856;2023-11-21T07:36:24;12.95;;;10.40;;
67528;SDS011;54366;51.980;5.856;2023-11-21T07:38:51;12.38;;;11.05;;
67528;SDS011;54366;51.980;5.856;2023-11-21T07:41:17;14.52;;;11.90;;
67528;SDS011;54366;51.980;5.856;2023-11-21T07:43:44;15.50;;;10.63;;
67528;SDS011;54366;51.980;5.856;2023-11-21T07:46:11;13.30;;;11.07;;
67528;SDS011;54366;51.980;5.856;2023-11-21T07:48:39;12.85;;;10.52;;
67528;SDS011;54366;51.980;5.856;2023-11-21T07:51:07;12.02;;;9.93;;
67528;SDS011;54366;51.980;5.856;2023-11-21T07:53:35;14.05;;;10.90;;
67528;SDS011;54366;51.980;5.856;2023-11-21T07:56:05;12.40;;;10.48;;
67528;SDS011;54366;51.980;5.856;2023-11-21T07:58:36;13.55;;;10.48;;
67528;SDS011;54366;51.980;5.856;2023-11-21T08:01:03;11.73;;;9.65;;
67528;SDS011;54366;51.980;5.856;2023-11-21T08:03:29;10.85;;;9.10;;
67528;SDS011;54366;51.980;5.856;2023-11-21T08:05:56;10.15;;;8.80;;
67528;SDS011;54366;51.980;5.856;2023-11-21T08:08:24;10.43;;;8.20;;
67528;SDS011;54366;51.980;5.856;2023-11-21T08:10:50;10.80;;;9.52;;
67528;SDS011;54366;51.980;5.856;2023-11-21T08:13:23;12.23;;;9.45;;
67528;SDS011;54366;51.980;5.856;2023-11-21T08:15:54;9.93;;;8.77;;
67528;SDS011;54366;51.980;5.856;2023-11-21T08:18:21;11.95;;;9.70;;
67528;SDS011;54366;51.980;5.856;2023-11-21T08:20:48;12.98;;;10.48;;
67528;SDS011;54366;51.980;5.856;2023-11-21T08:23:15;13.15;;;10.52;;
67528;SDS011;54366;51.980;5.856;2023-11-21T08:25:44;13.40;;;10.73;;
67528;SDS011;54366;51.980;5.856;2023-11-21T08:28:11;12.18;;;9.52;;
67528;SDS011;54366;51.980;5.856;2023-11-21T08:30:40;11.82;;;9.30;;
67528;SDS011;54366;51.980;5.856;2023-11-21T08:33:07;10.35;;;8.88;;
67528;SDS011;54366;51.980;5.856;2023-11-21T08:35:34;12.05;;;9.60;;
67528;SDS011;54366;51.980;5.856;2023-11-21T08:38:02;14.10;;;12.10;;
67528;SDS011;54366;51.980;5.856;2023-11-21T08:40:29;17.98;;;12.90;;
67528;SDS011;54366;51.980;5.856;2023-11-21T08:42:55;15.38;;;12.32;;
67528;SDS011;54366;51.980;5.856;2023-11-21T08:45:24;19.55;;;12.65;;
67528;SDS011;54366;51.980;5.856;2023-11-21T08:47:54;16.70;;;13.02;;
67528;SDS011;54366;51.980;5.856;2023-11-21T08:50:20;17.67;;;13.32;;
67528;SDS011;54366;51.980;5.856;2023-11-21T08:52:47;16.75;;;12.00;;
67528;SDS011;54366;51.980;5.856;2023-11-21T08:55:13;16.40;;;11.60;;
67528;SDS011;54366;51.980;5.856;2023-11-21T08:57:40;16.58;;;12.07;;
67528;SDS011;54366;51.980;5.856;2023-11-21T09:00:09;17.02;;;12.30;;
67528;SDS011;54366;51.980;5.856;2023-11-21T09:02:43;17.88;;;12.93;;
67528;SDS011;54366;51.980;5.856;2023-11-21T09:05:10;17.45;;;13.48;;
67528;SDS011;54366;51.980;5.856;2023-11-21T09:07:38;19.17;;;13.38;;
67528;SDS011;54366;51.980;5.856;2023-11-21T09:10:06;15.23;;;11.38;;
67528;SDS011;54366;51.980;5.856;2023-11-21T09:12:35;17.23;;;11.95;;
67528;SDS011;54366;51.980;5.856;2023-11-21T09:15:06;14.48;;;11.07;;
67528;SDS011;54366;51.980;5.856;2023-11-21T09:17:35;15.77;;;11.52;;
67528;SDS011;54366;51.980;5.856;2023-11-21T09:20:01;16.55;;;12.73;;
67528;SDS011;54366;51.980;5.856;2023-11-21T09:22:31;15.55;;;11.10;;
67528;SDS011;54366;51.980;5.856;2023-11-21T09:24:57;14.43;;;10.90;;
67528;SDS011;54366;51.980;5.856;2023-11-21T09:27:24;11.85;;;9.18;;
67528;SDS011;54366;51.980;5.856;2023-11-21T09:29:53;13.95;;;10.85;;
67528;SDS011;54366;51.980;5.856;2023-11-21T09:32:20;14.88;;;11.32;;
67528;SDS011;54366;51.980;5.856;2023-11-21T09:34:47;18.27;;;12.57;;
67528;SDS011;54366;51.980;5.856;2023-11-21T09:37:14;17.30;;;12.65;;
67528;SDS011;54366;51.980;5.856;2023-11-21T09:39:40;19.00;;;12.73;;
67528;SDS011;54366;51.980;5.856;2023-11-21T09:42:15;17.73;;;12.57;;
67528;SDS011;54366;51.980;5.856;2023-11-21T09:44:54;16.45;;;11.80;;
67528;SDS011;54366;51.980;5.856;2023-11-21T09:47:43;14.27;;;10.65;;
67528;SDS011;54366;51.980;5.856;2023-11-21T09:50:10;13.85;;;10.38;;
67528;SDS011;54366;51.980;5.856;2023-11-21T09:52:44;14.18;;;10.93;;
67528;SDS011;54366;51.980;5.856;2023-11-21T09:55:44;13.13;;;10.18;;
67528;SDS011;54366;51.980;5.856;2023-11-21T09:58:12;13.02;;;9.95;;
67528;SDS011;54366;51.980;5.856;2023-11-21T10:00:43;14.52;;;11.55;;
67528;SDS011;54366;51.980;5.856;2023-11-21T10:03:11;13.77;;;10.93;;
67528;SDS011;54366;51.980;5.856;2023-11-21T10:05:39;13.43;;;9.80;;
67528;SDS011;54366;51.980;5.856;2023-11-21T10:08:09;14.60;;;10.85;;
67528;SDS011;54366;51.980;5.856;2023-11-21T10:10:36;16.13;;;13.25;;
67528;SDS011;54366;51.980;5.856;2023-11-21T10:13:04;12.15;;;9.80;;
67528;SDS011;54366;51.980;5.856;2023-11-21T10:15:33;14.35;;;11.07;;
67528;SDS011;54366;51.980;5.856;2023-11-21T10:18:04;14.20;;;11.45;;
67528;SDS011;54366;51.980;5.856;2023-11-21T10:20:32;12.35;;;10.35;;
67528;SDS011;54366;51.980;5.856;2023-11-21T10:23:00;10.52;;;8.60;;
67528;SDS011;54366;51.980;5.856;2023-11-21T10:25:30;14.95;;;12.23;;
67528;SDS011;54366;51.980;5.856;2023-11-21T10:27:57;9.82;;;8.25;;
67528;SDS011;54366;51.980;5.856;2023-11-21T10:30:35;10.10;;;8.68;;
67528;SDS011;54366;51.980;5.856;2023-11-21T10:33:03;8.48;;;6.75;;
67528;SDS011;54366;51.980;5.856;2023-11-21T10:35:46;6.43;;;5.53;;
67528;SDS011;54366;51.980;5.856;2023-11-21T10:38:19;9.80;;;8.35;;
67528;SDS011;54366;51.980;5.856;2023-11-21T10:40:51;8.43;;;7.18;;
67528;SDS011;54366;51.980;5.856;2023-11-21T10:43:18;12.18;;;9.90;;
67528;SDS011;54366;51.980;5.856;2023-11-21T10:45:44;9.10;;;7.00;;
67528;SDS011;54366;51.980;5.856;2023-11-21T10:48:14;9.15;;;7.47;;
67528;SDS011;54366;51.980;5.856;2023-11-21T10:50:41;9.88;;;8.40;;
67528;SDS011;54366;51.980;5.856;2023-11-21T10:53:08;7.82;;;6.50;;
67528;SDS011;54366;51.980;5.856;2023-11-21T10:55:35;8.63;;;7.20;;
67528;SDS011;54366;51.980;5.856;2023-11-21T10:58:01;8.15;;;6.53;;
67528;SDS011;54366;51.980;5.856;2023-11-21T11:00:30;10.65;;;9.35;;
67528;SDS011;54366;51.980;5.856;2023-11-21T11:03:00;9.40;;;7.90;;
67528;SDS011;54366;51.980;5.856;2023-11-21T11:05:26;9.45;;;7.88;;
67528;SDS011;54366;51.980;5.856;2023-11-21T11:08:04;11.43;;;9.40;;
67528;SDS011;54366;51.980;5.856;2023-11-21T11:10:32;9.77;;;7.68;;
67528;SDS011;54366;51.980;5.856;2023-11-21T11:12:59;9.68;;;7.72;;
67528;SDS011;54366;51.980;5.856;2023-11-21T11:15:27;8.15;;;6.80;;
67528;SDS011;54366;51.980;5.856;2023-11-21T11:17:54;11.00;;;8.85;;
67528;SDS011;54366;51.980;5.856;2023-11-21T11:20:25;11.55;;;9.07;;
67528;SDS011;54366;51.980;5.856;2023-11-21T11:23:46;11.32;;;9.45;;
67528;SDS011;54366;51.980;5.856;2023-11-21T11:26:17;13.20;;;10.48;;
67528;SDS011;54366;51.980;5.856;2023-11-21T11:38:36;9.23;;;7.05;;
67528;SDS011;54366;51.980;5.856;2023-11-21T11:41:04;8.35;;;7.13;;
67528;SDS011;54366;51.980;5.856;2023-11-21T11:43:31;13.27;;;10.20;;
67528;SDS011;54366;51.980;5.856;2023-11-21T11:46:10;14.20;;;10.75;;
67528;SDS011;54366;51.980;5.856;2023-11-21T11:48:40;16.15;;;11.73;;
67528;SDS011;54366;51.980;5.856;2023-11-21T11:51:10;15.23;;;11.77;;
67528;SDS011;54366;51.980;5.856;2023-11-21T11:53:44;12.82;;;10.20;;
67528;SDS011;54366;51.980;5.856;2023-11-21T11:56:21;13.23;;;9.70;;
67528;SDS011;54366;51.980;5.856;2023-11-21T11:58:54;10.95;;;8.85;;
67528;SDS011;54366;51.980;5.856;2023-11-21T12:01:23;8.57;;;7.07;;
67528;SDS011;54366;51.980;5.856;2023-11-21T12:06:59;11.82;;;8.95;;
67528;SDS011;54366;51.980;5.856;2023-11-21T12:09:28;9.00;;;7.60;;
67528;SDS011;54366;51.980;5.856;2023-11-21T12:11:55;9.13;;;7.55;;
67528;SDS011;54366;51.980;5.856;2023-11-21T12:14:24;10.30;;;8.13;;
67528;SDS011;54366;51.980;5.856;2023-11-21T12:16:51;7.50;;;6.63;;
67528;SDS011;54366;51.980;5.856;2023-11-21T12:19:17;9.40;;;7.97;;
67528;SDS011;54366;51.980;5.856;2023-11-21T12:21:44;8.02;;;7.22;;
67528;SDS011;54366;51.980;5.856;2023-11-21T12:24:10;9.48;;;8.13;;
67528;SDS011;54366;51.980;5.856;2023-11-21T12:26:39;9.20;;;7.65;;
67528;SDS011;54366;51.980;5.856;2023-11-21T12:29:06;7.47;;;6.10;;
67528;SDS011;54366;51.980;5.856;2023-11-21T12:31:33;7.60;;;6.55;;
67528;SDS011;54366;51.980;5.856;2023-11-21T12:34:00;12.95;;;10.18;;
67528;SDS011;54366;51.980;5.856;2023-11-21T12:36:26;11.48;;;9.25;;
67528;SDS011;54366;51.980;5.856;2023-11-21T12:38:55;11.82;;;9.55;;
67528;SDS011;54366;51.980;5.856;2023-11-21T12:41:22;12.35;;;9.88;;
67528;SDS011;54366;51.980;5.856;2023-11-21T12:43:48;11.57;;;9.50;;
67528;SDS011;54366;51.980;5.856;2023-11-21T12:46:15;12.75;;;10.00;;
67528;SDS011;54366;51.980;5.856;2023-11-21T12:48:42;11.30;;;8.57;;
67528;SDS011;54366;51.980;5.856;2023-11-21T12:51:11;9.35;;;7.78;;
67528;SDS011;54366;51.980;5.856;2023-11-21T12:53:39;8.15;;;7.07;;
67528;SDS011;54366;51.980;5.856;2023-11-21T12:56:07;7.32;;;5.95;;
67528;SDS011;54366;51.980;5.856;2023-11-21T12:58:35;7.05;;;5.53;;
67528;SDS011;54366;51.980;5.856;2023-11-21T13:01:02;9.95;;;7.72;;
67528;SDS011;54366;51.980;5.856;2023-11-21T13:03:37;10.40;;;8.23;;
67528;SDS011;54366;51.980;5.856;2023-11-21T13:06:05;8.82;;;7.75;;
67528;SDS011;54366;51.980;5.856;2023-11-21T13:08:33;10.00;;;7.78;;
67528;SDS011;54366;51.980;5.856;2023-11-21T13:11:00;9.23;;;7.50;;
67528;SDS011;54366;51.980;5.856;2023-11-21T13:13:29;10.25;;;8.40;;
67528;SDS011;54366;51.980;5.856;2023-11-21T13:15:58;11.27;;;8.93;;
67528;SDS011;54366;51.980;5.856;2023-11-21T13:18:32;17.38;;;14.00;;
67528;SDS011;54366;51.980;5.856;2023-11-21T13:20:59;17.52;;;13.88;;
67528;SDS011;54366;51.980;5.856;2023-11-21T13:23:38;17.88;;;14.65;;
67528;SDS011;54366;51.980;5.856;2023-11-21T13:26:06;18.55;;;15.27;;
67528;SDS011;54366;51.980;5.856;2023-11-21T13:28:32;16.30;;;12.95;;
67528;SDS011;54366;51.980;5.856;2023-11-21T13:31:00;17.35;;;12.85;;
67528;SDS011;54366;51.980;5.856;2023-11-21T13:33:35;12.85;;;10.57;;
67528;SDS011;54366;51.980;5.856;2023-11-21T13:36:04;14.75;;;12.43;;
67528;SDS011;54366;51.980;5.856;2023-11-21T13:38:33;16.48;;;12.80;;
67528;SDS011;54366;51.980;5.856;2023-11-21T13:41:01;16.17;;;12.57;;
67528;SDS011;54366;51.980;5.856;2023-11-21T13:43:28;15.88;;;12.73;;
67528;SDS011;54366;51.980;5.856;2023-11-21T13:45:56;15.30;;;12.07;;
67528;SDS011;54366;51.980;5.856;2023-11-21T13:48:29;15.38;;;11.88;;
67528;SDS011;54366;51.980;5.856;2023-11-21T13:51:06;13.20;;;10.70;;
67528;SDS011;54366;51.980;5.856;2023-11-21T13:53:43;14.13;;;11.10;;
67528;SDS011;54366;51.980;5.856;2023-11-21T13:56:13;13.68;;;11.15;;
67528;SDS011;54366;51.980;5.856;2023-11-21T13:58:45;11.25;;;9.27;;
67528;SDS011;54366;51.980;5.856;2023-11-21T14:01:21;11.63;;;9.23;;
67528;SDS011;54366;51.980;5.856;2023-11-21T14:04:17;15.23;;;12.02;;
67528;SDS011;54366;51.980;5.856;2023-11-21T14:06:45;13.95;;;11.02;;
67528;SDS011;54366;51.980;5.856;2023-11-21T14:09:15;12.73;;;10.38;;
67528;SDS011;54366;51.980;5.856;2023-11-21T14:11:49;10.18;;;8.07;;
67528;SDS011;54366;51.980;5.856;2023-11-21T14:14:21;13.52;;;10.55;;
67528;SDS011;54366;51.980;5.856;2023-11-21T14:16:49;12.40;;;9.65;;
67528;SDS011;54366;51.980;5.856;2023-11-21T14:19:16;15.10;;;10.38;;
67528;SDS011;54366;51.980;5.856;2023-11-21T14:21:46;15.68;;;11.57;;
67528;SDS011;54366;51.980;5.856;2023-11-21T14:24:14;12.73;;;10.10;;
67528;SDS011;54366;51.980;5.856;2023-11-21T14:26:44;14.68;;;11.32;;
67528;SDS011;54366;51.980;5.856;2023-11-21T14:29:12;15.60;;;11.68;;
67528;SDS011;54366;51.980;5.856;2023-11-21T14:31:41;15.63;;;11.88;;
67528;SDS011;54366;51.980;5.856;2023-11-21T14:34:09;13.32;;;11.13;;
67528;SDS011;54366;51.980;5.856;2023-11-21T14:36:37;13.93;;;10.82;;
67528;SDS011;54366;51.980;5.856;2023-11-21T14:39:08;12.65;;;10.32;;
67528;SDS011;54366;51.980;5.856;2023-11-21T14:41:46;15.60;;;12.05;;
67528;SDS011;54366;51.980;5.856;2023-11-21T14:44:12;15.68;;;12.90;;
67528;SDS011;54366;51.980;5.856;2023-11-21T14:46:39;12.60;;;10.68;;
67528;SDS011;54366;51.980;5.856;2023-11-21T14:49:09;14.75;;;11.98;;